sensor_id;sensor_type;location;lat;lon;timestamp;P1;durP1;ratioP1;P2;durP2;ratioP2
10343;SDS011;5217;43.960;10.954;2023-07-31T00:00:56;5.38;;;4.15;;
10343;SDS011;5217;43.960;10.954;2023-07-31T00:03:26;5.80;;;3.65;;
10343;SDS011;5217;43.960;10.954;2023-07-31T00:05:54;5.45;;;3.83;;
10343;SDS011;5217;43.960;10.954;2023-07-31T00:08:23;6.18;;;3.40;;
10343;SDS011;5217;43.960;10.954;2023-07-31T00:10:52;3.83;;;3.15;;
10343;SDS011;5217;43.960;10.954;2023-07-31T00:13:21;4.18;;;3.40;;
10343;SDS011;5217;43.960;10.954;2023-07-31T00:15:49;4.53;;;3.80;;
10343;SDS011;5217;43.960;10.954;2023-07-31T00:18:18;4.32;;;3.20;;
10343;SDS011;5217;43.960;10.954;2023-07-31T00:20:48;3.50;;;3.20;;
10343;SDS011;5217;43.960;10.954;2023-07-31T00:23:16;4.38;;;3.28;;
10343;SDS011;5217;43.960;10.954;2023-07-31T00:25:45;4.30;;;3.45;;
10343;SDS011;5217;43.960;10.954;2023-07-31T00:28:13;3.75;;;3.28;;
10343;SDS011;5217;43.960;10.954;2023-07-31T00:30:42;4.93;;;3.60;;
10343;SDS011;5217;43.960;10.954;2023-07-31T00:33:10;5.22;;;3.90;;
10343;SDS011;5217;43.960;10.954;2023-07-31T00:35:38;4.45;;;3.97;;
10343;SDS011;5217;43.960;10.954;2023-07-31T00:38:08;4.82;;;3.83;;
10343;SDS011;5217;43.960;10.954;2023-07-31T00:40:36;4.57;;;4.07;;
10343;SDS011;5217;43.960;10.954;2023-07-31T00:43:05;5.75;;;4.05;;
10343;SDS011;5217;43.960;10.954;2023-07-31T00:45:33;4.63;;;3.70;;
10343;SDS011;5217;43.960;10.954;2023-07-31T00:48:02;4.53;;;3.50;;
10343;SDS011;5217;43.960;10.954;2023-07-31T00:50:32;5.25;;;3.83;;
10343;SDS011;5217;43.960;10.954;2023-07-31T00:53:02;4.38;;;3.70;;
10343;SDS011;5217;43.960;10.954;2023-07-31T00:55:32;3.92;;;3.42;;
10343;SDS011;5217;43.960;10.954;2023-07-31T00:58:00;5.05;;;3.60;;
10343;SDS011;5217;43.960;10.954;2023-07-31T01:00:28;4.22;;;3.47;;
10343;SDS011;5217;43.960;10.954;2023-07-31T01:02:57;3.90;;;3.40;;
10343;SDS011;5217;43.960;10.954;2023-07-31T01:05:29;4.05;;;3.17;;
10343;SDS011;5217;43.960;10.954;2023-07-31T01:08:04;4.55;;;3.60;;
10343;SDS011;5217;43.960;10.954;2023-07-31T01:10:44;5.20;;;3.45;;
10343;SDS011;5217;43.960;10.954;2023-07-31T01:13:17;5.15;;;3.83;;
10343;SDS011;5217;43.960;10.954;2023-07-31T01:15:46;4.30;;;3.45;;
10343;SDS011;5217;43.960;10.954;2023-07-31T01:18:15;5.35;;;3.63;;
10343;SDS011;5217;43.960;10.954;2023-07-31T01:20:43;4.00;;;3.28;;
10343;SDS011;5217;43.960;10.954;2023-07-31T01:23:35;3.92;;;3.53;;
10343;SDS011;5217;43.960;10.954;2023-07-31T01:26:21;3.95;;;3.55;;
10343;SDS011;5217;43.960;10.954;2023-07-31T01:28:55;4.30;;;3.53;;
10343;SDS011;5217;43.960;10.954;2023-07-31T01:31:31;6.25;;;4.00;;
10343;SDS011;5217;43.960;10.954;2023-07-31T01:34:00;3.88;;;3.53;;
10343;SDS011;5217;43.960;10.954;2023-07-31T01:36:30;4.63;;;3.70;;
10343;SDS011;5217;43.960;10.954;2023-07-31T01:38:59;5.38;;;3.72;;
10343;SDS011;5217;43.960;10.954;2023-07-31T01:41:29;3.88;;;3.38;;
10343;SDS011;5217;43.960;10.954;2023-07-31T01:43:58;5.72;;;4.20;;
10343;SDS011;5217;43.960;10.954;2023-07-31T01:46:26;4.53;;;3.45;;
10343;SDS011;5217;43.960;10.954;2023-07-31T01:48:55;3.83;;;3.20;;
10343;SDS011;5217;43.960;10.954;2023-07-31T01:51:24;4.35;;;3.67;;
10343;SDS011;5217;43.960;10.954;2023-07-31T01:53:52;3.55;;;3.25;;
10343;SDS011;5217;43.960;10.954;2023-07-31T01:56:21;4.85;;;3.80;;
10343;SDS011;5217;43.960;10.954;2023-07-31T01:58:51;3.72;;;3.28;;
10343;SDS011;5217;43.960;10.954;2023-07-31T02:01:19;3.90;;;3.33;;
10343;SDS011;5217;43.960;10.954;2023-07-31T02:03:48;6.50;;;4.00;;
10343;SDS011;5217;43.960;10.954;2023-07-31T02:06:17;4.70;;;3.28;;
10343;SDS011;5217;43.960;10.954;2023-07-31T02:08:45;3.95;;;3.55;;
10343;SDS011;5217;43.960;10.954;2023-07-31T02:11:13;4.13;;;3.50;;
10343;SDS011;5217;43.960;10.954;2023-07-31T02:13:42;4.32;;;3.45;;
10343;SDS011;5217;43.960;10.954;2023-07-31T02:16:11;5.15;;;3.33;;
10343;SDS011;5217;43.960;10.954;2023-07-31T02:18:40;5.32;;;3.88;;
10343;SDS011;5217;43.960;10.954;2023-07-31T02:21:08;3.90;;;3.50;;
10343;SDS011;5217;43.960;10.954;2023-07-31T02:23:36;4.60;;;3.40;;
10343;SDS011;5217;43.960;10.954;2023-07-31T02:26:05;4.55;;;3.45;;
10343;SDS011;5217;43.960;10.954;2023-07-31T02:28:33;4.00;;;3.53;;
10343;SDS011;5217;43.960;10.954;2023-07-31T02:31:02;3.58;;;3.28;;
10343;SDS011;5217;43.960;10.954;2023-07-31T02:33:31;4.82;;;3.50;;
10343;SDS011;5217;43.960;10.954;2023-07-31T02:36:00;4.50;;;3.30;;
10343;SDS011;5217;43.960;10.954;2023-07-31T02:38:28;5.40;;;3.72;;
10343;SDS011;5217;43.960;10.954;2023-07-31T02:40:57;4.88;;;3.30;;
10343;SDS011;5217;43.960;10.954;2023-07-31T02:43:25;4.25;;;3.53;;
10343;SDS011;5217;43.960;10.954;2023-07-31T02:45:53;3.65;;;3.35;;
10343;SDS011;5217;43.960;10.954;2023-07-31T02:48:22;3.75;;;3.40;;
10343;SDS011;5217;43.960;10.954;2023-07-31T02:50:53;3.58;;;3.28;;
10343;SDS011;5217;43.960;10.954;2023-07-31T02:53:21;3.85;;;3.53;;
10343;SDS011;5217;43.960;10.954;2023-07-31T02:55:49;5.07;;;3.50;;
10343;SDS011;5217;43.960;10.954;2023-07-31T02:58:18;3.75;;;3.40;;
10343;SDS011;5217;43.960;10.954;2023-07-31T03:00:46;5.43;;;3.65;;
10343;SDS011;5217;43.960;10.954;2023-07-31T03:03:14;3.60;;;3.20;;
10343;SDS011;5217;43.960;10.954;2023-07-31T03:05:43;4.20;;;3.50;;
10343;SDS011;5217;43.960;10.954;2023-07-31T03:08:13;3.72;;;3.25;;
10343;SDS011;5217;43.960;10.954;2023-07-31T03:10:41;3.50;;;3.20;;
10343;SDS011;5217;43.960;10.954;2023-07-31T03:13:10;3.65;;;3.35;;
10343;SDS011;5217;43.960;10.954;2023-07-31T03:15:40;3.97;;;3.38;;
10343;SDS011;5217;43.960;10.954;2023-07-31T03:18:10;3.88;;;3.28;;
10343;SDS011;5217;43.960;10.954;2023-07-31T03:20:41;3.90;;;3.50;;
10343;SDS011;5217;43.960;10.954;2023-07-31T03:23:10;5.28;;;3.33;;
10343;SDS011;5217;43.960;10.954;2023-07-31T03:25:41;4.43;;;3.00;;
10343;SDS011;5217;43.960;10.954;2023-07-31T03:28:22;4.35;;;3.35;;
10343;SDS011;5217;43.960;10.954;2023-07-31T03:30:51;3.67;;;3.25;;
10343;SDS011;5217;43.960;10.954;2023-07-31T03:33:19;5.57;;;3.28;;
10343;SDS011;5217;43.960;10.954;2023-07-31T03:35:47;3.80;;;3.20;;
10343;SDS011;5217;43.960;10.954;2023-07-31T03:38:16;4.70;;;3.00;;
10343;SDS011;5217;43.960;10.954;2023-07-31T03:40:46;4.30;;;3.30;;
10343;SDS011;5217;43.960;10.954;2023-07-31T03:43:14;3.95;;;3.08;;
10343;SDS011;5217;43.960;10.954;2023-07-31T03:45:43;5.88;;;3.40;;
10343;SDS011;5217;43.960;10.954;2023-07-31T03:48:11;3.55;;;3.25;;
10343;SDS011;5217;43.960;10.954;2023-07-31T03:50:42;4.40;;;3.40;;
10343;SDS011;5217;43.960;10.954;2023-07-31T03:53:11;3.85;;;3.38;;
10343;SDS011;5217;43.960;10.954;2023-07-31T03:55:39;3.83;;;3.35;;
10343;SDS011;5217;43.960;10.954;2023-07-31T03:58:09;4.28;;;3.40;;
10343;SDS011;5217;43.960;10.954;2023-07-31T04:00:37;4.80;;;3.40;;
10343;SDS011;5217;43.960;10.954;2023-07-31T04:03:07;5.43;;;3.88;;
10343;SDS011;5217;43.960;10.954;2023-07-31T04:05:37;5.07;;;3.45;;
10343;SDS011;5217;43.960;10.954;2023-07-31T04:08:07;4.88;;;3.17;;
10343;SDS011;5217;43.960;10.954;2023-07-31T04:10:37;5.53;;;3.78;;
10343;SDS011;5217;43.960;10.954;2023-07-31T04:13:05;4.70;;;3.63;;
10343;SDS011;5217;43.960;10.954;2023-07-31T04:15:35;5.97;;;3.60;;
10343;SDS011;5217;43.960;10.954;2023-07-31T04:18:04;3.35;;;3.05;;
10343;SDS011;5217;43.960;10.954;2023-07-31T04:20:32;3.83;;;3.38;;
10343;SDS011;5217;43.960;10.954;2023-07-31T04:23:01;4.13;;;3.22;;
10343;SDS011;5217;43.960;10.954;2023-07-31T04:25:29;3.97;;;3.35;;
10343;SDS011;5217;43.960;10.954;2023-07-31T04:27:58;5.03;;;3.83;;
10343;SDS011;5217;43.960;10.954;2023-07-31T04:30:26;4.20;;;3.80;;
10343;SDS011;5217;43.960;10.954;2023-07-31T04:32:56;4.20;;;3.33;;
10343;SDS011;5217;43.960;10.954;2023-07-31T04:35:24;3.70;;;3.28;;
10343;SDS011;5217;43.960;10.954;2023-07-31T04:37:53;4.85;;;3.50;;
10343;SDS011;5217;43.960;10.954;2023-07-31T04:40:21;3.97;;;3.53;;
10343;SDS011;5217;43.960;10.954;2023-07-31T04:42:49;3.78;;;3.38;;
10343;SDS011;5217;43.960;10.954;2023-07-31T04:45:18;4.38;;;3.75;;
10343;SDS011;5217;43.960;10.954;2023-07-31T04:47:46;4.25;;;3.47;;
10343;SDS011;5217;43.960;10.954;2023-07-31T04:50:16;3.60;;;2.95;;
10343;SDS011;5217;43.960;10.954;2023-07-31T04:52:45;4.38;;;3.28;;
10343;SDS011;5217;43.960;10.954;2023-07-31T04:55:13;4.68;;;2.88;;
10343;SDS011;5217;43.960;10.954;2023-07-31T04:57:42;4.60;;;3.33;;
10343;SDS011;5217;43.960;10.954;2023-07-31T05:00:10;4.55;;;3.50;;
10343;SDS011;5217;43.960;10.954;2023-07-31T05:02:39;3.92;;;3.13;;
10343;SDS011;5217;43.960;10.954;2023-07-31T05:05:08;4.50;;;3.28;;
10343;SDS011;5217;43.960;10.954;2023-07-31T05:07:37;3.22;;;2.92;;
10343;SDS011;5217;43.960;10.954;2023-07-31T05:10:06;5.25;;;3.15;;
10343;SDS011;5217;43.960;10.954;2023-07-31T05:12:35;3.50;;;3.20;;
10343;SDS011;5217;43.960;10.954;2023-07-31T05:15:04;3.50;;;3.00;;
10343;SDS011;5217;43.960;10.954;2023-07-31T05:17:33;3.60;;;3.10;;
10343;SDS011;5217;43.960;10.954;2023-07-31T05:20:02;3.50;;;3.15;;
10343;SDS011;5217;43.960;10.954;2023-07-31T05:22:30;4.32;;;3.20;;
10343;SDS011;5217;43.960;10.954;2023-07-31T05:25:00;3.80;;;3.40;;
10343;SDS011;5217;43.960;10.954;2023-07-31T05:27:28;3.42;;;3.13;;
10343;SDS011;5217;43.960;10.954;2023-07-31T05:29:57;3.67;;;3.15;;
10343;SDS011;5217;43.960;10.954;2023-07-31T05:32:26;3.97;;;3.55;;
10343;SDS011;5217;43.960;10.954;2023-07-31T05:34:54;3.35;;;3.03;;
10343;SDS011;5217;43.960;10.954;2023-07-31T05:37:23;3.60;;;3.25;;
10343;SDS011;5217;43.960;10.954;2023-07-31T05:39:51;6.00;;;3.78;;
10343;SDS011;5217;43.960;10.954;2023-07-31T05:42:21;4.60;;;3.40;;
10343;SDS011;5217;43.960;10.954;2023-07-31T05:44:49;3.92;;;3.58;;
10343;SDS011;5217;43.960;10.954;2023-07-31T05:47:18;4.85;;;3.70;;
10343;SDS011;5217;43.960;10.954;2023-07-31T05:49:46;4.72;;;3.63;;
10343;SDS011;5217;43.960;10.954;2023-07-31T05:52:15;6.93;;;3.72;;
10343;SDS011;5217;43.960;10.954;2023-07-31T05:54:44;5.43;;;3.92;;
10343;SDS011;5217;43.960;10.954;2023-07-31T05:57:13;4.43;;;3.97;;
10343;SDS011;5217;43.960;10.954;2023-07-31T05:59:42;5.38;;;4.22;;
10343;SDS011;5217;43.960;10.954;2023-07-31T06:02:11;5.88;;;4.43;;
10343;SDS011;5217;43.960;10.954;2023-07-31T06:04:39;5.45;;;4.28;;
10343;SDS011;5217;43.960;10.954;2023-07-31T06:07:08;6.70;;;4.40;;
10343;SDS011;5217;43.960;10.954;2023-07-31T06:09:37;5.18;;;4.00;;
10343;SDS011;5217;43.960;10.954;2023-07-31T06:12:05;6.00;;;4.18;;
10343;SDS011;5217;43.960;10.954;2023-07-31T06:14:35;7.00;;;4.03;;
10343;SDS011;5217;43.960;10.954;2023-07-31T06:17:05;6.53;;;4.60;;
10343;SDS011;5217;43.960;10.954;2023-07-31T06:19:33;8.32;;;4.80;;
10343;SDS011;5217;43.960;10.954;2023-07-31T06:22:02;7.07;;;4.97;;
10343;SDS011;5217;43.960;10.954;2023-07-31T06:24:30;8.45;;;4.57;;
10343;SDS011;5217;43.960;10.954;2023-07-31T06:26:59;6.22;;;4.90;;
10343;SDS011;5217;43.960;10.954;2023-07-31T06:29:29;4.63;;;4.03;;
10343;SDS011;5217;43.960;10.954;2023-07-31T06:31:58;6.47;;;4.75;;
10343;SDS011;5217;43.960;10.954;2023-07-31T06:34:31;9.23;;;5.50;;
10343;SDS011;5217;43.960;10.954;2023-07-31T06:36:59;7.95;;;4.80;;
10343;SDS011;5217;43.960;10.954;2023-07-31T06:39:27;8.50;;;4.82;;
10343;SDS011;5217;43.960;10.954;2023-07-31T06:41:56;7.40;;;5.22;;
10343;SDS011;5217;43.960;10.954;2023-07-31T06:44:24;7.63;;;5.03;;
10343;SDS011;5217;43.960;10.954;2023-07-31T06:46:52;7.93;;;5.18;;
10343;SDS011;5217;43.960;10.954;2023-07-31T06:49:21;7.97;;;5.15;;
10343;SDS011;5217;43.960;10.954;2023-07-31T06:51:50;7.05;;;4.70;;
10343;SDS011;5217;43.960;10.954;2023-07-31T06:54:19;5.32;;;4.40;;
10343;SDS011;5217;43.960;10.954;2023-07-31T06:56:47;5.57;;;4.95;;
10343;SDS011;5217;43.960;10.954;2023-07-31T06:59:15;7.78;;;5.07;;
10343;SDS011;5217;43.960;10.954;2023-07-31T07:01:44;6.88;;;5.10;;
10343;SDS011;5217;43.960;10.954;2023-07-31T07:04:13;6.93;;;4.75;;
10343;SDS011;5217;43.960;10.954;2023-07-31T07:06:41;8.40;;;5.00;;
10343;SDS011;5217;43.960;10.954;2023-07-31T07:09:11;5.57;;;4.53;;
10343;SDS011;5217;43.960;10.954;2023-07-31T07:11:40;6.20;;;4.28;;
10343;SDS011;5217;43.960;10.954;2023-07-31T07:14:08;5.18;;;4.05;;
10343;SDS011;5217;43.960;10.954;2023-07-31T07:16:37;4.97;;;4.20;;
10343;SDS011;5217;43.960;10.954;2023-07-31T07:19:08;5.95;;;3.95;;
10343;SDS011;5217;43.960;10.954;2023-07-31T07:21:36;5.40;;;4.20;;
10343;SDS011;5217;43.960;10.954;2023-07-31T07:24:05;7.28;;;4.30;;
10343;SDS011;5217;43.960;10.954;2023-07-31T07:26:35;7.65;;;5.35;;
10343;SDS011;5217;43.960;10.954;2023-07-31T07:29:04;7.30;;;5.45;;
10343;SDS011;5217;43.960;10.954;2023-07-31T07:31:34;7.40;;;4.95;;
10343;SDS011;5217;43.960;10.954;2023-07-31T07:34:02;6.10;;;4.47;;
10343;SDS011;5217;43.960;10.954;2023-07-31T07:36:31;6.97;;;5.20;;
10343;SDS011;5217;43.960;10.954;2023-07-31T07:39:00;8.45;;;5.25;;
10343;SDS011;5217;43.960;10.954;2023-07-31T07:41:28;6.38;;;4.97;;
10343;SDS011;5217;43.960;10.954;2023-07-31T07:43:58;6.68;;;4.97;;
10343;SDS011;5217;43.960;10.954;2023-07-31T07:46:26;8.25;;;5.07;;
10343;SDS011;5217;43.960;10.954;2023-07-31T07:48:55;5.90;;;4.82;;
10343;SDS011;5217;43.960;10.954;2023-07-31T07:51:23;6.05;;;5.10;;
10343;SDS011;5217;43.960;10.954;2023-07-31T07:53:52;8.23;;;5.30;;
10343;SDS011;5217;43.960;10.954;2023-07-31T07:56:21;8.50;;;5.13;;
10343;SDS011;5217;43.960;10.954;2023-07-31T07:58:52;6.47;;;5.00;;
10343;SDS011;5217;43.960;10.954;2023-07-31T08:01:22;6.30;;;5.13;;
10343;SDS011;5217;43.960;10.954;2023-07-31T08:03:51;7.18;;;4.43;;
10343;SDS011;5217;43.960;10.954;2023-07-31T08:06:19;4.18;;;3.58;;
10343;SDS011;5217;43.960;10.954;2023-07-31T08:08:49;5.22;;;4.47;;
10343;SDS011;5217;43.960;10.954;2023-07-31T08:11:17;6.82;;;4.30;;
10343;SDS011;5217;43.960;10.954;2023-07-31T08:13:46;6.40;;;4.65;;
10343;SDS011;5217;43.960;10.954;2023-07-31T08:16:14;7.13;;;4.35;;
10343;SDS011;5217;43.960;10.954;2023-07-31T08:18:44;5.65;;;4.20;;
10343;SDS011;5217;43.960;10.954;2023-07-31T08:21:13;5.88;;;3.97;;
10343;SDS011;5217;43.960;10.954;2023-07-31T08:23:42;8.13;;;4.35;;
10343;SDS011;5217;43.960;10.954;2023-07-31T08:26:14;7.68;;;4.68;;
10343;SDS011;5217;43.960;10.954;2023-07-31T08:28:42;7.00;;;5.00;;
10343;SDS011;5217;43.960;10.954;2023-07-31T08:31:11;7.93;;;4.60;;
10343;SDS011;5217;43.960;10.954;2023-07-31T08:33:39;6.40;;;4.45;;
10343;SDS011;5217;43.960;10.954;2023-07-31T08:36:09;5.47;;;4.25;;
10343;SDS011;5217;43.960;10.954;2023-07-31T08:38:38;5.95;;;4.03;;
10343;SDS011;5217;43.960;10.954;2023-07-31T08:41:06;4.85;;;3.60;;
10343;SDS011;5217;43.960;10.954;2023-07-31T08:43:34;4.80;;;3.70;;
10343;SDS011;5217;43.960;10.954;2023-07-31T08:46:04;5.47;;;4.20;;
10343;SDS011;5217;43.960;10.954;2023-07-31T08:48:33;5.20;;;4.38;;
10343;SDS011;5217;43.960;10.954;2023-07-31T08:51:03;5.38;;;4.40;;
10343;SDS011;5217;43.960;10.954;2023-07-31T08:53:32;6.55;;;4.10;;
10343;SDS011;5217;43.960;10.954;2023-07-31T08:56:01;5.25;;;4.13;;
10343;SDS011;5217;43.960;10.954;2023-07-31T08:58:31;5.35;;;3.92;;
10343;SDS011;5217;43.960;10.954;2023-07-31T09:01:01;5.78;;;3.97;;
10343;SDS011;5217;43.960;10.954;2023-07-31T09:03:33;4.95;;;3.78;;
10343;SDS011;5217;43.960;10.954;2023-07-31T09:06:02;3.63;;;3.33;;
10343;SDS011;5217;43.960;10.954;2023-07-31T09:08:34;4.45;;;3.33;;
10343;SDS011;5217;43.960;10.954;2023-07-31T09:11:02;7.05;;;3.95;;
10343;SDS011;5217;43.960;10.954;2023-07-31T09:13:31;4.57;;;4.10;;
10343;SDS011;5217;43.960;10.954;2023-07-31T09:16:00;5.80;;;3.72;;
10343;SDS011;5217;43.960;10.954;2023-07-31T09:18:28;4.70;;;3.40;;
10343;SDS011;5217;43.960;10.954;2023-07-31T09:21:00;5.28;;;3.60;;
10343;SDS011;5217;43.960;10.954;2023-07-31T09:23:41;7.00;;;3.80;;
10343;SDS011;5217;43.960;10.954;2023-07-31T09:26:10;9.57;;;3.97;;
10343;SDS011;5217;43.960;10.954;2023-07-31T09:28:39;8.30;;;3.85;;
10343;SDS011;5217;43.960;10.954;2023-07-31T09:31:07;4.97;;;3.50;;
10343;SDS011;5217;43.960;10.954;2023-07-31T09:33:35;4.40;;;3.38;;
10343;SDS011;5217;43.960;10.954;2023-07-31T09:36:22;3.70;;;3.38;;
10343;SDS011;5217;43.960;10.954;2023-07-31T09:38:52;9.93;;;3.75;;
10343;SDS011;5217;43.960;10.954;2023-07-31T09:41:20;7.15;;;3.85;;
10343;SDS011;5217;43.960;10.954;2023-07-31T09:43:52;6.25;;;3.50;;
10343;SDS011;5217;43.960;10.954;2023-07-31T09:46:21;5.28;;;3.67;;
10343;SDS011;5217;43.960;10.954;2023-07-31T09:48:49;5.43;;;3.65;;
10343;SDS011;5217;43.960;10.954;2023-07-31T09:51:24;4.10;;;3.13;;
10343;SDS011;5217;43.960;10.954;2023-07-31T09:53:55;5.53;;;4.13;;
10343;SDS011;5217;43.960;10.954;2023-07-31T09:56:24;3.95;;;3.63;;
10343;SDS011;5217;43.960;10.954;2023-07-31T09:58:53;5.28;;;3.65;;
10343;SDS011;5217;43.960;10.954;2023-07-31T10:01:23;4.75;;;4.03;;
10343;SDS011;5217;43.960;10.954;2023-07-31T10:03:52;5.90;;;3.83;;
10343;SDS011;5217;43.960;10.954;2023-07-31T10:06:21;3.88;;;3.47;;
10343;SDS011;5217;43.960;10.954;2023-07-31T10:08:49;4.18;;;3.47;;
10343;SDS011;5217;43.960;10.954;2023-07-31T10:11:21;5.18;;;3.97;;
10343;SDS011;5217;43.960;10.954;2023-07-31T10:13:52;4.65;;;3.72;;
10343;SDS011;5217;43.960;10.954;2023-07-31T10:16:21;7.57;;;3.90;;
10343;SDS011;5217;43.960;10.954;2023-07-31T10:18:50;6.55;;;3.95;;
10343;SDS011;5217;43.960;10.954;2023-07-31T10:21:20;4.63;;;3.60;;
10343;SDS011;5217;43.960;10.954;2023-07-31T10:23:49;4.38;;;3.50;;
10343;SDS011;5217;43.960;10.954;2023-07-31T10:26:18;4.07;;;3.30;;
10343;SDS011;5217;43.960;10.954;2023-07-31T10:28:48;5.97;;;3.90;;
10343;SDS011;5217;43.960;10.954;2023-07-31T10:31:20;5.57;;;4.00;;
10343;SDS011;5217;43.960;10.954;2023-07-31T10:33:49;4.60;;;3.85;;
10343;SDS011;5217;43.960;10.954;2023-07-31T10:36:19;5.97;;;4.05;;
10343;SDS011;5217;43.960;10.954;2023-07-31T10:38:48;5.93;;;3.83;;
10343;SDS011;5217;43.960;10.954;2023-07-31T10:41:17;4.55;;;3.45;;
10343;SDS011;5217;43.960;10.954;2023-07-31T10:43:46;4.70;;;3.58;;
10343;SDS011;5217;43.960;10.954;2023-07-31T10:46:16;4.55;;;3.30;;
10343;SDS011;5217;43.960;10.954;2023-07-31T10:48:44;3.97;;;3.17;;
10343;SDS011;5217;43.960;10.954;2023-07-31T10:51:20;3.70;;;3.17;;
10343;SDS011;5217;43.960;10.954;2023-07-31T10:53:49;4.88;;;3.47;;
10343;SDS011;5217;43.960;10.954;2023-07-31T10:56:38;4.32;;;3.40;;
10343;SDS011;5217;43.960;10.954;2023-07-31T10:59:08;7.25;;;3.40;;
10343;SDS011;5217;43.960;10.954;2023-07-31T11:01:51;3.97;;;3.10;;
10343;SDS011;5217;43.960;10.954;2023-07-31T11:04:23;6.10;;;3.72;;
10343;SDS011;5217;43.960;10.954;2023-07-31T11:06:55;6.68;;;3.90;;
10343;SDS011;5217;43.960;10.954;2023-07-31T11:09:25;4.30;;;3.53;;
10343;SDS011;5217;43.960;10.954;2023-07-31T11:11:57;5.28;;;3.60;;
10343;SDS011;5217;43.960;10.954;2023-07-31T11:14:27;3.85;;;3.53;;
10343;SDS011;5217;43.960;10.954;2023-07-31T11:16:56;5.55;;;3.90;;
10343;SDS011;5217;43.960;10.954;2023-07-31T11:19:25;5.00;;;3.92;;
10343;SDS011;5217;43.960;10.954;2023-07-31T11:21:54;7.47;;;5.32;;
10343;SDS011;5217;43.960;10.954;2023-07-31T11:24:24;6.97;;;4.85;;
10343;SDS011;5217;43.960;10.954;2023-07-31T11:26:53;5.05;;;3.92;;
10343;SDS011;5217;43.960;10.954;2023-07-31T11:29:21;6.93;;;4.38;;
10343;SDS011;5217;43.960;10.954;2023-07-31T11:31:57;5.03;;;4.40;;
10343;SDS011;5217;43.960;10.954;2023-07-31T11:34:26;5.60;;;3.95;;
10343;SDS011;5217;43.960;10.954;2023-07-31T11:36:55;4.50;;;3.50;;
10343;SDS011;5217;43.960;10.954;2023-07-31T11:39:24;3.97;;;3.55;;
10343;SDS011;5217;43.960;10.954;2023-07-31T11:41:58;6.13;;;3.80;;
10343;SDS011;5217;43.960;10.954;2023-07-31T11:44:38;3.83;;;3.42;;
10343;SDS011;5217;43.960;10.954;2023-07-31T11:47:14;4.50;;;3.88;;
10343;SDS011;5217;43.960;10.954;2023-07-31T11:49:44;4.80;;;3.70;;
10343;SDS011;5217;43.960;10.954;2023-07-31T11:52:12;5.38;;;3.55;;
10343;SDS011;5217;43.960;10.954;2023-07-31T11:54:42;3.85;;;3.45;;
10343;SDS011;5217;43.960;10.954;2023-07-31T11:57:12;3.85;;;3.45;;
10343;SDS011;5217;43.960;10.954;2023-07-31T11:59:45;4.10;;;3.10;;
10343;SDS011;5217;43.960;10.954;2023-07-31T12:02:17;3.25;;;2.92;;
10343;SDS011;5217;43.960;10.954;2023-07-31T12:04:47;9.18;;;3.72;;
10343;SDS011;5217;43.960;10.954;2023-07-31T12:07:18;6.30;;;3.58;;
10343;SDS011;5217;43.960;10.954;2023-07-31T12:09:53;4.95;;;3.95;;
10343;SDS011;5217;43.960;10.954;2023-07-31T12:12:22;4.47;;;3.38;;
10343;SDS011;5217;43.960;10.954;2023-07-31T12:14:53;4.72;;;3.30;;
10343;SDS011;5217;43.960;10.954;2023-07-31T12:17:23;8.02;;;4.20;;
10343;SDS011;5217;43.960;10.954;2023-07-31T12:19:52;5.85;;;3.67;;
10343;SDS011;5217;43.960;10.954;2023-07-31T12:22:21;5.32;;;3.65;;
10343;SDS011;5217;43.960;10.954;2023-07-31T12:24:49;5.43;;;3.47;;
10343;SDS011;5217;43.960;10.954;2023-07-31T12:27:22;3.72;;;3.42;;
10343;SDS011;5217;43.960;10.954;2023-07-31T12:29:54;3.80;;;3.38;;
10343;SDS011;5217;43.960;10.954;2023-07-31T12:32:23;8.30;;;3.45;;
10343;SDS011;5217;43.960;10.954;2023-07-31T12:34:58;7.03;;;3.38;;
10343;SDS011;5217;43.960;10.954;2023-07-31T12:37:29;6.28;;;3.50;;
10343;SDS011;5217;43.960;10.954;2023-07-31T12:40:01;4.85;;;3.22;;
10343;SDS011;5217;43.960;10.954;2023-07-31T12:42:34;3.80;;;3.00;;
10343;SDS011;5217;43.960;10.954;2023-07-31T12:45:05;5.10;;;2.90;;
10343;SDS011;5217;43.960;10.954;2023-07-31T12:47:34;3.90;;;3.10;;
10343;SDS011;5217;43.960;10.954;2023-07-31T12:50:03;4.53;;;3.50;;
10343;SDS011;5217;43.960;10.954;2023-07-31T12:52:32;3.67;;;3.10;;
10343;SDS011;5217;43.960;10.954;2023-07-31T12:55:01;3.15;;;2.85;;
10343;SDS011;5217;43.960;10.954;2023-07-31T12:57:31;3.50;;;2.65;;
10343;SDS011;5217;43.960;10.954;2023-07-31T13:00:01;3.60;;;2.83;;
10343;SDS011;5217;43.960;10.954;2023-07-31T13:02:31;3.45;;;2.42;;
10343;SDS011;5217;43.960;10.954;2023-07-31T13:05:00;3.38;;;2.47;;
10343;SDS011;5217;43.960;10.954;2023-07-31T13:07:29;5.32;;;3.05;;
10343;SDS011;5217;43.960;10.954;2023-07-31T13:09:58;3.38;;;2.80;;
10343;SDS011;5217;43.960;10.954;2023-07-31T13:12:26;4.18;;;2.65;;
10343;SDS011;5217;43.960;10.954;2023-07-31T13:14:58;5.63;;;2.95;;
10343;SDS011;5217;43.960;10.954;2023-07-31T13:17:27;3.65;;;2.85;;
10343;SDS011;5217;43.960;10.954;2023-07-31T13:19:57;4.65;;;3.13;;
10343;SDS011;5217;43.960;10.954;2023-07-31T13:22:26;2.95;;;2.42;;
10343;SDS011;5217;43.960;10.954;2023-07-31T13:24:55;3.47;;;2.25;;
10343;SDS011;5217;43.960;10.954;2023-07-31T13:27:24;2.90;;;2.53;;
10343;SDS011;5217;43.960;10.954;2023-07-31T13:29:55;3.15;;;2.58;;
10343;SDS011;5217;43.960;10.954;2023-07-31T13:32:24;5.90;;;2.40;;
10343;SDS011;5217;43.960;10.954;2023-07-31T13:34:53;3.97;;;2.47;;
10343;SDS011;5217;43.960;10.954;2023-07-31T13:37:23;3.20;;;2.83;;
10343;SDS011;5217;43.960;10.954;2023-07-31T13:39:52;3.70;;;2.70;;
10343;SDS011;5217;43.960;10.954;2023-07-31T13:42:21;2.85;;;2.50;;
10343;SDS011;5217;43.960;10.954;2023-07-31T13:44:49;3.88;;;2.60;;
10343;SDS011;5217;43.960;10.954;2023-07-31T13:47:18;2.72;;;2.20;;
10343;SDS011;5217;43.960;10.954;2023-07-31T13:49:48;3.78;;;2.53;;
10343;SDS011;5217;43.960;10.954;2023-07-31T13:52:19;3.20;;;2.40;;
10343;SDS011;5217;43.960;10.954;2023-07-31T13:54:49;2.63;;;2.42;;
10343;SDS011;5217;43.960;10.954;2023-07-31T13:57:17;3.65;;;2.50;;
10343;SDS011;5217;43.960;10.954;2023-07-31T13:59:45;2.72;;;2.38;;
10343;SDS011;5217;43.960;10.954;2023-07-31T14:02:14;3.33;;;2.33;;
10343;SDS011;5217;43.960;10.954;2023-07-31T14:04:43;2.60;;;2.10;;
10343;SDS011;5217;43.960;10.954;2023-07-31T14:07:12;3.55;;;2.45;;
10343;SDS011;5217;43.960;10.954;2023-07-31T14:09:41;3.13;;;2.38;;
10343;SDS011;5217;43.960;10.954;2023-07-31T14:12:11;3.03;;;2.40;;
10343;SDS011;5217;43.960;10.954;2023-07-31T14:14:57;3.22;;;2.60;;
10343;SDS011;5217;43.960;10.954;2023-07-31T14:17:26;4.57;;;3.17;;
10343;SDS011;5217;43.960;10.954;2023-07-31T14:19:54;3.25;;;2.70;;
10343;SDS011;5217;43.960;10.954;2023-07-31T14:22:29;5.38;;;2.60;;
10343;SDS011;5217;43.960;10.954;2023-07-31T14:25:00;3.28;;;2.72;;
10343;SDS011;5217;43.960;10.954;2023-07-31T14:27:29;4.00;;;2.75;;
10343;SDS011;5217;43.960;10.954;2023-07-31T14:29:58;3.47;;;2.70;;
10343;SDS011;5217;43.960;10.954;2023-07-31T14:32:26;4.03;;;2.40;;
10343;SDS011;5217;43.960;10.954;2023-07-31T14:34:55;3.17;;;2.38;;
10343;SDS011;5217;43.960;10.954;2023-07-31T14:37:25;3.25;;;2.50;;
10343;SDS011;5217;43.960;10.954;2023-07-31T14:39:55;3.58;;;2.72;;
10343;SDS011;5217;43.960;10.954;2023-07-31T14:42:24;3.70;;;2.60;;
10343;SDS011;5217;43.960;10.954;2023-07-31T14:44:54;2.40;;;2.20;;
10343;SDS011;5217;43.960;10.954;2023-07-31T14:47:24;3.42;;;2.55;;
10343;SDS011;5217;43.960;10.954;2023-07-31T14:49:53;2.90;;;2.30;;
10343;SDS011;5217;43.960;10.954;2023-07-31T14:52:22;2.83;;;2.40;;
10343;SDS011;5217;43.960;10.954;2023-07-31T14:54:50;3.20;;;2.33;;
10343;SDS011;5217;43.960;10.954;2023-07-31T14:57:19;3.67;;;2.80;;
10343;SDS011;5217;43.960;10.954;2023-07-31T14:59:50;4.32;;;2.83;;
10343;SDS011;5217;43.960;10.954;2023-07-31T15:02:19;3.50;;;2.45;;